Time;durP1;ratioP1;P1;durP2;ratioP2;P2;SDS_P1;SDS_P2;PMS_P1;PMS_P2;Temp;Humidity;BMP_temperature;BMP_pressure;BME280_temperature;BME280_humidity;BME280_pressure;Samples;Min_cycle;Max_cycle;Signal;HPM_P1;HPM_P2
2023/06/27 00:00:45;;;;;;;;;5.00;1.33;;;;;;;;1973544;28;2747531;-79
2023/06/27 00:01:57;;;;;;;;;1.20;1.20;;;;;;;;2004915;28;2731543;-78
2023/06/27 00:03:11;;;;;;;;;1.50;1.00;;;;;;;;2001759;28;2724249;-78
2023/06/27 00:04:24;;;;;;;;;1.67;1.67;;;;;;;;1979261;28;2727818;-79
2023/06/27 00:05:37;;;;;;;;;3.17;1.00;;;;;;;;1981688;28;2730499;-80
2023/06/27 00:06:50;;;;;;;;;1.83;1.00;;;;;;;;1974828;28;2733626;-80
2023/06/27 00:08:06;;;;;;;;;2.50;1.83;;;;;;;;1998038;28;2736723;-80
2023/06/27 00:09:19;;;;;;;;;2.00;2.00;;;;;;;;1975148;28;2741964;-80
2023/06/27 00:10:33;;;;;;;;;3.17;1.33;;;;;;;;1980051;28;2728411;-81
2023/06/27 00:11:46;;;;;;;;;1.83;1.00;;;;;;;;1982737;28;2724252;-79
2023/06/27 00:12:59;;;;;;;;;1.33;1.33;;;;;;;;1974862;28;2727747;-80
2023/06/27 00:14:13;;;;;;;;;1.67;1.17;;;;;;;;1975811;28;2730478;-79
2023/06/27 00:15:29;;;;;;;;;0.83;0.17;;;;;;;;1983401;28;2722154;-81
2023/06/27 00:16:42;;;;;;;;;1.00;0.00;;;;;;;;1968737;28;2727358;-80
2023/06/27 00:17:55;;;;;;;;;2.00;2.00;;;;;;;;1975209;28;2729422;-80
2023/06/27 00:19:08;;;;;;;;;2.83;2.00;;;;;;;;1982587;28;2737785;-80
2023/06/27 00:20:21;;;;;;;;;1.00;1.00;;;;;;;;1973372;28;2727378;-81
2023/06/27 00:21:35;;;;;;;;;3.00;2.00;;;;;;;;1975577;28;2732601;-80
2023/06/27 00:22:46;;;;;;;;;2.33;1.67;;;;;;;;1957762;28;2744063;-80
2023/06/27 00:23:59;;;;;;;;;2.00;0.00;;;;;;;;2006498;28;2731513;-80
2023/06/27 00:25:13;;;;;;;;;2.00;2.00;;;;;;;;1983174;28;2737762;-80
2023/06/27 00:26:27;;;;;;;;;1.00;1.00;;;;;;;;1979207;28;2726311;-80
2023/06/27 00:27:40;;;;;;;;;1.17;1.17;;;;;;;;1983389;28;2739877;-80
2023/06/27 00:28:53;;;;;;;;;1.17;1.00;;;;;;;;1982543;28;2727350;-81
2023/06/27 00:30:07;;;;;;;;;1.17;1.17;;;;;;;;1978168;28;2724818;-80
2023/06/27 00:31:20;;;;;;;;;1.67;1.00;;;;;;;;1975311;28;2725327;-80
2023/06/27 00:32:33;;;;;;;;;4.00;1.00;;;;;;;;1983555;28;2732547;-80
2023/06/27 00:33:46;;;;;;;;;2.00;2.00;;;;;;;;1982339;28;2736743;-80
2023/06/27 00:34:59;;;;;;;;;4.83;1.17;;;;;;;;1983060;28;2736752;-80
2023/06/27 00:36:15;;;;;;;;;0.67;0.33;;;;;;;;1980401;28;2731508;-79
2023/06/27 00:37:28;;;;;;;;;1.50;1.50;;;;;;;;1977510;28;2729451;-80
2023/06/27 00:38:41;;;;;;;;;3.00;1.50;;;;;;;;1982159;28;2733600;-80
2023/06/27 00:39:54;;;;;;;;;1.00;1.00;;;;;;;;1981740;28;2722138;-79
2023/06/27 00:41:07;;;;;;;;;2.50;1.67;;;;;;;;1981130;28;2730490;-79
2023/06/27 00:42:20;;;;;;;;;1.83;0.50;;;;;;;;1979967;28;2724245;-80
2023/06/27 00:43:33;;;;;;;;;2.67;1.00;;;;;;;;1975541;28;2729440;-80
2023/06/27 00:44:46;;;;;;;;;2.00;1.00;;;;;;;;1983593;28;2730633;-80
2023/06/27 00:46:02;;;;;;;;;1.83;1.83;;;;;;;;1979040;28;2732570;-80
2023/06/27 00:47:15;;;;;;;;;2.50;1.33;;;;;;;;1977978;28;2737763;-79
2023/06/27 00:48:28;;;;;;;;;2.50;1.33;;;;;;;;1982046;28;2742994;-78
2023/06/27 00:49:41;;;;;;;;;2.00;2.00;;;;;;;;1982270;28;2746163;-78
2023/06/27 00:50:55;;;;;;;;;1.67;1.33;;;;;;;;1981060;28;2738250;-79
2023/06/27 00:52:08;;;;;;;;;3.17;1.67;;;;;;;;1982262;28;2736733;-76
2023/06/27 00:53:21;;;;;;;;;1.33;1.17;;;;;;;;1974173;28;2742975;-76
2023/06/27 00:54:34;;;;;;;;;1.50;1.00;;;;;;;;1982218;28;2727441;-78
2023/06/27 00:55:47;;;;;;;;;2.83;1.00;;;;;;;;1979038;28;2746107;-80
2023/06/27 00:57:01;;;;;;;;;2.00;1.50;;;;;;;;1974379;28;2723210;-81
2023/06/27 00:58:14;;;;;;;;;3.00;1.50;;;;;;;;1976029;28;2711726;-80
2023/06/27 00:59:24;;;;;;;;;4.00;2.00;;;;;;;;1948820;28;2750272;-81
2023/06/27 01:00:36;;;;;;;;;0.75;0.75;;;;;;;;1997781;28;2727779;-81
2023/06/27 01:01:49;;;;;;;;;1.33;1.33;;;;;;;;1983166;28;2729444;-81
2023/06/27 01:03:03;;;;;;;;;2.17;1.00;;;;;;;;1979578;28;2728887;-80
2023/06/27 01:04:16;;;;;;;;;2.00;2.00;;;;;;;;1982404;28;2744093;-81
2023/06/27 01:05:29;;;;;;;;;1.33;1.33;;;;;;;;1979981;28;2737853;-78
2023/06/27 01:06:54;;;;;;;;;1.17;1.17;;;;;;;;1973852;28;2732569;-79
2023/06/27 01:08:10;;;;;;;;;1.00;1.00;;;;;;;;2005702;28;2722184;-78
2023/06/27 01:09:29;;;;;;;;;4.17;2.17;;;;;;;;1982309;28;2750264;-79
2023/06/27 01:10:39;;;;;;;;;2.33;2.33;;;;;;;;1956665;28;2750262;-79
2023/06/27 01:11:53;;;;;;;;;1.67;1.67;;;;;;;;2003908;28;2735682;-78
2023/06/27 01:13:11;;;;;;;;;1.00;1.00;;;;;;;;2005478;28;2727338;-79
2023/06/27 01:14:25;;;;;;;;;1.00;1.00;;;;;;;;1976536;28;2723182;-79
2023/06/27 01:15:38;;;;;;;;;1.50;1.50;;;;;;;;1980013;28;2737790;-79
2023/06/27 01:16:51;;;;;;;;;3.00;0.83;;;;;;;;1968600;28;2726381;-79
2023/06/27 01:18:05;;;;;;;;;2.00;1.00;;;;;;;;1975338;28;2731579;-79
2023/06/27 01:19:21;;;;;;;;;1.67;1.67;;;;;;;;1977736;28;2733592;-79
2023/06/27 01:20:34;;;;;;;;;1.17;1.00;;;;;;;;1974110;28;2731504;-79
2023/06/27 01:21:51;;;;;;;;;1.00;1.00;;;;;;;;1975481;28;2720124;-79
2023/06/27 01:23:21;;;;;;;;;2.00;2.00;;;;;;;;1996591;28;2744015;-79
2023/06/27 01:24:36;;;;;;;;;1.67;1.67;;;;;;;;1978492;28;2732565;-78
2023/06/27 01:25:50;;;;;;;;;1.17;1.17;;;;;;;;1980265;28;2741952;-78
2023/06/27 01:27:03;;;;;;;;;2.33;1.83;;;;;;;;1990102;28;2733599;-78
2023/06/27 01:28:17;;;;;;;;;1.00;1.00;;;;;;;;1975440;28;2733603;-78
2023/06/27 01:29:30;;;;;;;;;2.00;1.00;;;;;;;;1982936;28;2728400;-78
2023/06/27 01:30:43;;;;;;;;;1.50;1.00;;;;;;;;1983018;28;2731508;-78
2023/06/27 01:31:58;;;;;;;;;4.00;2.00;;;;;;;;1979589;28;2754458;-76
2023/06/27 01:33:17;;;;;;;;;3.83;1.17;;;;;;;;2004924;28;2737794;-76
2023/06/27 01:34:30;;;;;;;;;3.83;1.00;;;;;;;;1975995;28;2734664;-77
2023/06/27 01:35:48;;;;;;;;;2.17;1.00;;;;;;;;1974847;28;2727393;-77
2023/06/27 01:37:13;;;;;;;;;2.50;1.00;;;;;;;;1976815;28;2723577;-77
2023/06/27 01:38:33;;;;;;;;;1.00;1.00;;;;;;;;1983131;28;2725262;-77
2023/06/27 01:39:46;;;;;;;;;2.50;2.00;;;;;;;;2005522;28;2735683;-77
2023/06/27 01:41:00;;;;;;;;;4.00;2.17;;;;;;;;1982176;28;2738879;-77
2023/06/27 01:42:23;;;;;;;;;2.00;2.00;;;;;;;;1952963;28;2750262;-80
2023/06/27 01:43:36;;;;;;;;;2.17;2.00;;;;;;;;1998393;28;2748246;-77
2023/06/27 01:44:51;;;;;;;;;1.50;1.50;;;;;;;;1974921;28;2729496;-77
2023/06/27 01:46:04;;;;;;;;;1.50;1.00;;;;;;;;1979958;28;2741954;-80
2023/06/27 01:47:17;;;;;;;;;1.00;1.00;;;;;;;;1980414;28;2725274;-80
2023/06/27 01:48:31;;;;;;;;;2.00;2.00;;;;;;;;1982670;28;2729461;-80
2023/06/27 01:49:45;;;;;;;;;2.67;2.00;;;;;;;;1981634;28;2726317;-81
2023/06/27 01:50:58;;;;;;;;;0.83;0.83;;;;;;;;1982608;28;2727350;-80
2023/06/27 01:52:13;;;;;;;;;1.00;1.00;;;;;;;;1982070;28;2729462;-80
2023/06/27 01:53:27;;;;;;;;;0.00;0.00;;;;;;;;1983347;28;2714867;-80
2023/06/27 01:54:40;;;;;;;;;1.17;1.17;;;;;;;;1992016;28;2737813;-81
2023/06/27 01:55:53;;;;;;;;;1.00;1.00;;;;;;;;1982144;28;2727365;-81
2023/06/27 01:57:07;;;;;;;;;0.00;0.00;;;;;;;;1981599;28;2731987;-81
2023/06/27 01:58:20;;;;;;;;;1.33;1.33;;;;;;;;1982636;28;2728411;-82
2023/06/27 01:59:33;;;;;;;;;0.33;0.33;;;;;;;;1983036;28;2727361;-81
2023/06/27 02:00:46;;;;;;;;;2.67;1.67;;;;;;;;1976429;28;2754429;-81
2023/06/27 02:01:59;;;;;;;;;2.00;1.00;;;;;;;;1981893;28;2729446;-79
2023/06/27 02:03:12;;;;;;;;;0.67;0.67;;;;;;;;1981040;28;2727354;-79
2023/06/27 02:04:25;;;;;;;;;1.83;1.83;;;;;;;;1975909;28;2735675;-80
2023/06/27 02:05:38;;;;;;;;;2.67;1.00;;;;;;;;1976580;28;2733603;-79
2023/06/27 02:06:51;;;;;;;;;1.00;1.00;;;;;;;;1976491;28;2731544;-79
2023/06/27 02:08:04;;;;;;;;;1.33;1.00;;;;;;;;1978432;28;2729481;-79
2023/06/27 02:09:17;;;;;;;;;2.00;1.50;;;;;;;;1982867;28;2729421;-79
2023/06/27 02:10:30;;;;;;;;;1.67;1.00;;;;;;;;1982108;28;2734665;-79
2023/06/27 02:11:43;;;;;;;;;1.00;1.00;;;;;;;;1983148;28;2725314;-79
2023/06/27 02:12:56;;;;;;;;;1.00;1.00;;;;;;;;1981941;28;2734700;-79
2023/06/27 02:14:09;;;;;;;;;1.00;1.00;;;;;;;;1978766;28;2728418;-79
2023/06/27 02:15:22;;;;;;;;;3.00;1.17;;;;;;;;1979046;28;2735688;-79
2023/06/27 02:16:35;;;;;;;;;1.00;0.00;;;;;;;;1979299;28;2729417;-79
2023/06/27 02:17:48;;;;;;;;;1.00;1.00;;;;;;;;1973847;28;2720115;-79
2023/06/27 02:19:01;;;;;;;;;1.00;1.00;;;;;;;;1998994;28;2732039;-79
2023/06/27 02:20:14;;;;;;;;;1.00;1.00;;;;;;;;1982095;28;2731868;-79
2023/06/27 02:21:27;;;;;;;;;2.50;1.00;;;;;;;;1982327;28;2719021;-79
2023/06/27 02:22:40;;;;;;;;;1.00;1.00;;;;;;;;1982890;28;2720071;-79
2023/06/27 02:23:53;;;;;;;;;2.00;2.00;;;;;;;;2004550;28;2729478;-79
2023/06/27 02:25:07;;;;;;;;;2.00;1.00;;;;;;;;1970813;28;2731520;-79
2023/06/27 02:26:20;;;;;;;;;4.67;1.00;;;;;;;;1996571;28;2717995;-79
2023/06/27 02:27:33;;;;;;;;;1.83;1.83;;;;;;;;1974441;28;2731511;-79
2023/06/27 02:28:46;;;;;;;;;1.00;1.00;;;;;;;;1982090;28;2722153;-79
2023/06/27 02:29:59;;;;;;;;;2.50;1.00;;;;;;;;1982088;28;2734702;-79
2023/06/27 02:31:12;;;;;;;;;1.67;1.33;;;;;;;;1982226;28;2729484;-79
2023/06/27 02:32:25;;;;;;;;;1.83;1.67;;;;;;;;1973646;28;2735699;-79
2023/06/27 02:33:38;;;;;;;;;1.67;1.00;;;;;;;;1975046;28;2740886;-79
2023/06/27 02:34:51;;;;;;;;;1.00;1.00;;;;;;;;1978309;28;2725373;-79
2023/06/27 02:36:04;;;;;;;;;2.00;1.00;;;;;;;;1996947;28;2729429;-80
2023/06/27 02:37:17;;;;;;;;;0.67;0.00;;;;;;;;1980454;28;2731536;-79
2023/06/27 02:38:30;;;;;;;;;1.50;0.17;;;;;;;;2005369;28;2720051;-79
2023/06/27 02:39:43;;;;;;;;;1.67;1.50;;;;;;;;2004067;28;2739864;-79
2023/06/27 02:40:56;;;;;;;;;1.00;1.00;;;;;;;;1981865;28;2730483;-80
2023/06/27 02:42:09;;;;;;;;;1.00;1.00;;;;;;;;1977125;28;2729454;-79
2023/06/27 02:43:20;;;;;;;;;2.00;2.00;;;;;;;;1952267;28;2746123;-79
2023/06/27 02:44:31;;;;;;;;;3.00;1.33;;;;;;;;1998993;28;2733618;-79
2023/06/27 02:45:44;;;;;;;;;1.83;0.00;;;;;;;;2005706;28;2733596;-79
2023/06/27 02:46:57;;;;;;;;;2.00;2.00;;;;;;;;1980775;28;2731524;-78
2023/06/27 02:48:10;;;;;;;;;2.17;2.00;;;;;;;;1981748;28;2744027;-78
2023/06/27 02:49:23;;;;;;;;;2.00;1.83;;;;;;;;1983091;28;2735738;-78
2023/06/27 02:50:36;;;;;;;;;2.00;1.50;;;;;;;;1982783;28;2737758;-76
2023/06/27 02:51:49;;;;;;;;;2.83;2.00;;;;;;;;1982668;28;2739850;-78
2023/06/27 02:53:02;;;;;;;;;1.17;1.00;;;;;;;;1975129;28;2726355;-77
2023/06/27 02:54:16;;;;;;;;;1.50;1.50;;;;;;;;1972803;28;2735718;-77
2023/06/27 02:55:29;;;;;;;;;2.00;1.00;;;;;;;;2006955;28;2727711;-76
2023/06/27 02:56:42;;;;;;;;;1.67;1.00;;;;;;;;1973876;28;2730494;-76
2023/06/27 02:57:55;;;;;;;;;2.17;1.00;;;;;;;;1976822;28;2742978;-76
2023/06/27 02:59:08;;;;;;;;;1.00;1.00;;;;;;;;1983183;28;2729477;-76
2023/06/27 03:00:21;;;;;;;;;2.17;2.17;;;;;;;;1982936;28;2748229;-76
2023/06/27 03:01:34;;;;;;;;;1.33;1.00;;;;;;;;1983887;28;2725263;-76
2023/06/27 03:02:47;;;;;;;;;1.00;1.00;;;;;;;;2002482;28;2741963;-75
2023/06/27 03:04:00;;;;;;;;;1.33;1.33;;;;;;;;1975687;28;2737833;-75
2023/06/27 03:05:10;;;;;;;;;3.67;2.00;;;;;;;;1953397;28;2754983;-77
2023/06/27 03:06:22;;;;;;;;;3.00;2.00;;;;;;;;1994111;28;2752472;-77
2023/06/27 03:07:35;;;;;;;;;1.00;1.00;;;;;;;;2004274;28;2741940;-77
2023/06/27 03:08:49;;;;;;;;;3.17;1.50;;;;;;;;1975675;28;2735699;-77
2023/06/27 03:10:02;;;;;;;;;1.00;1.00;;;;;;;;1983632;28;2722173;-77
2023/06/27 03:11:15;;;;;;;;;1.83;1.00;;;;;;;;1983581;28;2727374;-77
2023/06/27 03:12:28;;;;;;;;;2.00;2.00;;;;;;;;1983450;28;2736026;-76
2023/06/27 03:13:41;;;;;;;;;1.33;1.33;;;;;;;;1983070;28;2720071;-76
2023/06/27 03:14:52;;;;;;;;;3.00;2.00;;;;;;;;1953826;28;2754416;-79
2023/06/27 03:16:03;;;;;;;;;2.33;1.00;;;;;;;;2004074;28;2748166;-79
2023/06/27 03:17:16;;;;;;;;;4.67;2.83;;;;;;;;1997344;28;2738792;-80
2023/06/27 03:18:29;;;;;;;;;2.83;1.83;;;;;;;;1983847;28;2731519;-79
2023/06/27 03:19:42;;;;;;;;;3.67;2.17;;;;;;;;1982804;28;2746134;-80
2023/06/27 03:20:55;;;;;;;;;2.00;2.00;;;;;;;;1982224;28;2746130;-80
2023/06/27 03:22:08;;;;;;;;;4.33;2.17;;;;;;;;1973635;28;2749221;-79
2023/06/27 03:23:21;;;;;;;;;2.17;2.17;;;;;;;;1975018;28;2748210;-79
2023/06/27 03:24:34;;;;;;;;;3.67;2.33;;;;;;;;1978943;28;2736717;-78
2023/06/27 03:25:47;;;;;;;;;3.00;1.83;;;;;;;;1982338;28;2732570;-78
2023/06/27 03:27:00;;;;;;;;;2.33;1.00;;;;;;;;1970161;28;2726320;-77
2023/06/27 03:28:13;;;;;;;;;2.00;2.00;;;;;;;;2002975;28;2746138;-79
2023/06/27 03:29:26;;;;;;;;;5.50;2.00;;;;;;;;1983732;28;2725613;-79
2023/06/27 03:30:43;;;;;;;;;4.17;2.00;;;;;;;;1982119;28;2752352;-78
2023/06/27 03:31:57;;;;;;;;;2.00;2.00;;;;;;;;1957457;28;2752360;-78
2023/06/27 03:33:10;;;;;;;;;2.17;1.83;;;;;;;;2005295;28;2735748;-78
2023/06/27 03:34:23;;;;;;;;;3.00;2.67;;;;;;;;1981092;28;2753419;-78
2023/06/27 03:35:36;;;;;;;;;1.83;1.67;;;;;;;;1977315;28;2735682;-79
2023/06/27 03:36:49;;;;;;;;;3.50;2.33;;;;;;;;1975544;28;2753426;-78
2023/06/27 03:38:02;;;;;;;;;1.00;1.00;;;;;;;;1974850;28;2736754;-78
2023/06/27 03:39:15;;;;;;;;;3.00;2.33;;;;;;;;1975876;28;2738828;-78
2023/06/27 03:40:28;;;;;;;;;4.17;2.00;;;;;;;;1970209;28;2740898;-78
2023/06/27 03:41:38;;;;;;;;;2.67;2.00;;;;;;;;1949853;28;2753402;-78
2023/06/27 03:42:49;;;;;;;;;1.33;1.00;;;;;;;;2004251;28;2727390;-78
2023/06/27 03:44:05;;;;;;;;;1.83;1.00;;;;;;;;2002189;28;2729497;-79
2023/06/27 03:45:19;;;;;;;;;1.67;1.67;;;;;;;;2001594;28;2742958;-78
2023/06/27 03:46:32;;;;;;;;;2.50;2.00;;;;;;;;1980651;28;2740899;-78
2023/06/27 03:47:45;;;;;;;;;2.00;1.00;;;;;;;;1982459;28;2730505;-78
2023/06/27 03:48:58;;;;;;;;;2.17;2.00;;;;;;;;1982002;28;2748209;-77
2023/06/27 03:50:11;;;;;;;;;2.17;1.00;;;;;;;;1975340;28;2720067;-78
2023/06/27 03:51:26;;;;;;;;;1.50;1.00;;;;;;;;1999040;28;2719015;-77
2023/06/27 03:52:39;;;;;;;;;1.83;1.00;;;;;;;;1982723;28;2731552;-77
2023/06/27 03:53:52;;;;;;;;;3.00;1.50;;;;;;;;1975025;28;2735689;-77
2023/06/27 03:55:06;;;;;;;;;2.67;1.83;;;;;;;;1979636;28;2742963;-77
2023/06/27 03:56:16;;;;;;;;;3.00;2.00;;;;;;;;1956006;28;2752342;-79
2023/06/27 03:57:27;;;;;;;;;4.00;2.00;;;;;;;;1988561;28;2754491;-78
2023/06/27 03:58:39;;;;;;;;;3.20;1.40;;;;;;;;2006255;28;2729456;-78
2023/06/27 03:59:49;;;;;;;;;2.00;2.00;;;;;;;;1955512;28;3460674;-78
2023/06/27 04:01:00;;;;;;;;;3.67;2.33;;;;;;;;1995952;28;2750289;-81
2023/06/27 04:02:13;;;;;;;;;4.00;0.67;;;;;;;;1996306;28;2735805;-81
2023/06/27 04:03:24;;;;;;;;;2.00;2.00;;;;;;;;1950222;28;2751414;-78
2023/06/27 04:04:34;;;;;;;;;2.00;2.00;;;;;;;;1995029;28;2749264;-78
2023/06/27 04:05:46;;;;;;;;;2.67;1.33;;;;;;;;1996615;28;2734644;-78
2023/06/27 04:06:59;;;;;;;;;1.83;1.83;;;;;;;;2005027;28;2739845;-79
2023/06/27 04:08:12;;;;;;;;;2.50;1.33;;;;;;;;1982747;28;2733619;-78
2023/06/27 04:09:25;;;;;;;;;3.67;2.17;;;;;;;;1981622;28;2754421;-78
2023/06/27 04:10:35;;;;;;;;;3.00;3.00;;;;;;;;1951775;28;2751381;-82
2023/06/27 04:11:46;;;;;;;;;1.67;1.67;;;;;;;;1980416;29;2737794;-81
2023/06/27 04:12:58;;;;;;;;;1.80;1.60;;;;;;;;1993693;28;2752347;-81
2023/06/27 04:14:11;;;;;;;;;2.17;2.00;;;;;;;;1974958;28;2754464;-78
2023/06/27 04:15:21;;;;;;;;;2.67;2.67;;;;;;;;1950109;28;2737122;-81
2023/06/27 04:16:32;;;;;;;;;5.00;2.00;;;;;;;;1989215;28;2735683;-79
2023/06/27 04:17:45;;;;;;;;;1.83;1.67;;;;;;;;1997285;28;2731512;-82
2023/06/27 04:18:58;;;;;;;;;3.50;3.00;;;;;;;;2004744;28;2754464;-82
2023/06/27 04:20:09;;;;;;;;;3.00;3.00;;;;;;;;1948947;28;2750282;-82
2023/06/27 04:21:21;;;;;;;;;2.67;1.00;;;;;;;;1989203;28;2729473;-82
2023/06/27 04:22:34;;;;;;;;;3.00;2.33;;;;;;;;2004168;28;2736769;-79
2023/06/27 04:23:47;;;;;;;;;2.50;2.00;;;;;;;;1968015;28;2750268;-78
2023/06/27 04:25:00;;;;;;;;;2.00;2.00;;;;;;;;1975107;28;2744008;-78
2023/06/27 04:26:15;;;;;;;;;4.33;3.17;;;;;;;;1982800;28;2735710;-79
2023/06/27 04:27:25;;;;;;;;;3.00;3.00;;;;;;;;1957084;28;2754424;-78
2023/06/27 04:28:36;;;;;;;;;3.00;1.33;;;;;;;;2004401;28;2736143;-78
2023/06/27 04:29:47;;;;;;;;;2.00;2.00;;;;;;;;1979510;28;2752422;-78
2023/06/27 04:31:00;;;;;;;;;3.00;3.00;;;;;;;;1999481;28;2740914;-81
2023/06/27 04:32:13;;;;;;;;;2.67;2.00;;;;;;;;2002925;28;2740886;-80
2023/06/27 04:33:29;;;;;;;;;2.00;0.00;;;;;;;;1980236;28;2729438;-80
2023/06/27 04:34:42;;;;;;;;;2.17;1.17;;;;;;;;2004273;28;2729437;-80
2023/06/27 04:36:00;;;;;;;;;2.50;2.50;;;;;;;;1965931;28;2754456;-80
2023/06/27 04:37:18;;;;;;;;;1.83;1.67;;;;;;;;1976159;28;2735694;-80
2023/06/27 04:38:37;;;;;;;;;2.17;2.17;;;;;;;;1979744;28;2744012;-80
2023/06/27 04:39:52;;;;;;;;;3.50;2.17;;;;;;;;1976890;28;2733591;-80
2023/06/27 04:41:09;;;;;;;;;5.00;2.00;;;;;;;;1952818;28;3450249;-77
2023/06/27 04:42:22;;;;;;;;;2.83;2.00;;;;;;;;2005474;28;2750293;-77
2023/06/27 04:43:36;;;;;;;;;2.67;2.50;;;;;;;;1972097;28;2739862;-77
2023/06/27 04:44:49;;;;;;;;;2.17;1.83;;;;;;;;1978239;28;2728379;-77
2023/06/27 04:46:02;;;;;;;;;3.00;2.00;;;;;;;;1979046;28;2737774;-77
2023/06/27 04:47:12;;;;;;;;;2.00;2.00;;;;;;;;1947789;28;2742132;-78
2023/06/27 04:48:23;;;;;;;;;2.00;2.00;;;;;;;;1988040;28;2748201;-78
2023/06/27 04:49:33;;;;;;;;;2.33;1.33;;;;;;;;1976048;28;2744031;-77
2023/06/27 04:50:44;;;;;;;;;3.00;2.00;;;;;;;;1989120;28;2749233;-77
2023/06/27 04:51:57;;;;;;;;;2.17;1.50;;;;;;;;1986101;28;2732561;-78
2023/06/27 04:53:10;;;;;;;;;1.67;1.67;;;;;;;;1987005;28;2730467;-77
2023/06/27 04:54:21;;;;;;;;;3.67;2.00;;;;;;;;1942640;28;2751351;-78
2023/06/27 04:55:32;;;;;;;;;1.00;1.00;;;;;;;;1990662;28;2719144;-77
2023/06/27 04:56:45;;;;;;;;;5.33;1.67;;;;;;;;1967492;28;2744004;-77
2023/06/27 04:57:58;;;;;;;;;2.50;1.33;;;;;;;;1973509;28;2737774;-76
2023/06/27 04:59:12;;;;;;;;;3.50;3.00;;;;;;;;1966438;28;2750274;-77
2023/06/27 05:00:25;;;;;;;;;2.00;2.00;;;;;;;;1967551;28;2736764;-77
2023/06/27 05:01:35;;;;;;;;;3.00;2.00;;;;;;;;1948737;28;2755009;-76
2023/06/27 05:02:46;;;;;;;;;3.33;2.33;;;;;;;;1994330;28;2746099;-77
2023/06/27 05:04:04;;;;;;;;;2.33;1.50;;;;;;;;1988436;28;2735671;-77
2023/06/27 05:05:17;;;;;;;;;3.00;3.00;;;;;;;;1985435;28;2738793;-78
2023/06/27 05:06:31;;;;;;;;;1.33;1.33;;;;;;;;1964996;28;2733647;-79
2023/06/27 05:07:44;;;;;;;;;4.17;3.00;;;;;;;;1960467;28;2740926;-76
2023/06/27 05:08:54;;;;;;;;;4.00;3.00;;;;;;;;1939279;28;2742023;-76
2023/06/27 05:10:05;;;;;;;;;2.00;1.33;;;;;;;;1983394;28;2735770;-79
2023/06/27 05:11:18;;;;;;;;;3.00;3.00;;;;;;;;1986624;28;2736757;-79
2023/06/27 05:12:31;;;;;;;;;3.67;2.00;;;;;;;;1963171;28;2750399;-78
2023/06/27 05:13:44;;;;;;;;;2.00;2.00;;;;;;;;1957535;28;2739870;-76
2023/06/27 05:14:57;;;;;;;;;3.33;3.33;;;;;;;;1957334;28;2750282;-76
2023/06/27 05:16:08;;;;;;;;;4.33;2.00;;;;;;;;1940441;28;2752424;-76
2023/06/27 05:17:19;;;;;;;;;2.67;2.33;;;;;;;;1989392;28;2739902;-76
2023/06/27 05:18:29;;;;;;;;;2.67;1.33;;;;;;;;1964226;28;2739874;-76
2023/06/27 05:19:40;;;;;;;;;2.00;2.00;;;;;;;;1991583;28;2739354;-76
2023/06/27 05:20:52;;;;;;;;;3.60;1.20;;;;;;;;1996736;28;2731531;-76
2023/06/27 05:22:05;;;;;;;;;3.33;3.33;;;;;;;;1965690;28;2733656;-75
2023/06/27 05:23:20;;;;;;;;;4.17;2.00;;;;;;;;1960310;28;2721116;-76
2023/06/27 05:24:33;;;;;;;;;4.17;2.00;;;;;;;;1961317;28;2751742;-75
2023/06/27 05:25:47;;;;;;;;;6.33;2.00;;;;;;;;1965804;28;2760697;-76
2023/06/27 05:27:00;;;;;;;;;3.17;2.33;;;;;;;;1968055;28;2744025;-75
2023/06/27 05:28:13;;;;;;;;;3.83;2.00;;;;;;;;1963045;28;2750638;-76
2023/06/27 05:29:26;;;;;;;;;2.83;2.00;;;;;;;;1967233;28;2741958;-76
2023/06/27 05:30:40;;;;;;;;;2.67;2.50;;;;;;;;1965496;28;2752357;-75
2023/06/27 05:31:50;;;;;;;;;2.67;2.00;;;;;;;;1938971;28;2753402;-76
2023/06/27 05:33:04;;;;;;;;;2.33;2.00;;;;;;;;1994104;28;2737773;-76
2023/06/27 05:34:17;;;;;;;;;5.17;3.67;;;;;;;;1982686;28;2743086;-76
2023/06/27 05:35:30;;;;;;;;;4.00;2.33;;;;;;;;1958543;28;2742476;-76
2023/06/27 05:36:43;;;;;;;;;3.33;1.17;;;;;;;;1964027;28;2746122;-75
2023/06/27 05:37:56;;;;;;;;;2.67;2.67;;;;;;;;1979885;28;2744016;-75
2023/06/27 05:39:06;;;;;;;;;4.33;2.67;;;;;;;;1933573;28;3446628;-76
2023/06/27 05:40:17;;;;;;;;;3.67;2.00;;;;;;;;1985792;28;2748233;-76
2023/06/27 05:41:32;;;;;;;;;2.00;2.00;;;;;;;;1990235;28;2747156;-76
2023/06/27 05:42:42;;;;;;;;;2.00;2.00;;;;;;;;1962351;28;2741964;-76
2023/06/27 05:43:53;;;;;;;;;4.33;2.33;;;;;;;;1988445;28;2737793;-75
2023/06/27 05:45:03;;;;;;;;;3.00;2.00;;;;;;;;1961947;28;3462820;-75
2023/06/27 05:46:14;;;;;;;;;2.00;2.00;;;;;;;;1977438;28;2750322;-75
2023/06/27 05:47:25;;;;;;;;;4.33;3.33;;;;;;;;1981243;28;2739879;-75
2023/06/27 05:48:36;;;;;;;;;2.00;2.00;;;;;;;;1981837;28;2747254;-76
2023/06/27 05:49:47;;;;;;;;;4.00;3.00;;;;;;;;1990206;28;2726332;-76
2023/06/27 05:51:00;;;;;;;;;3.33;2.33;;;;;;;;1985661;28;2742009;-76
2023/06/27 05:52:14;;;;;;;;;4.17;2.50;;;;;;;;1963450;28;2737782;-77
2023/06/27 05:53:27;;;;;;;;;3.83;2.00;;;;;;;;1965643;28;2744024;-77
2023/06/27 05:54:37;;;;;;;;;3.00;3.00;;;;;;;;1937324;28;2749291;-75
2023/06/27 05:55:48;;;;;;;;;1.00;1.00;;;;;;;;1988284;28;2729512;-77
2023/06/27 05:56:58;;;;;;;;;5.33;3.00;;;;;;;;1958290;28;2741953;-76
2023/06/27 05:58:09;;;;;;;;;5.00;3.33;;;;;;;;1985786;28;2748197;-76
2023/06/27 05:59:20;;;;;;;;;5.33;2.00;;;;;;;;1985313;28;2747165;-79
2023/06/27 06:00:31;;;;;;;;;5.67;3.67;;;;;;;;1986311;28;2746179;-76
2023/06/27 06:01:41;;;;;;;;;2.00;2.00;;;;;;;;1963937;28;2748324;-76
2023/06/27 06:02:53;;;;;;;;;1.00;1.00;;;;;;;;1979782;28;2733624;-75
2023/06/27 06:04:06;;;;;;;;;3.00;2.00;;;;;;;;1982515;28;2754463;-75
2023/06/27 06:05:19;;;;;;;;;3.33;2.67;;;;;;;;1973079;28;2744068;-75
2023/06/27 06:06:29;;;;;;;;;4.33;3.00;;;;;;;;1939524;28;2737743;-75
2023/06/27 06:07:43;;;;;;;;;3.00;2.00;;;;;;;;1987764;28;2746107;-75
2023/06/27 06:08:56;;;;;;;;;2.50;2.50;;;;;;;;1982758;28;2730547;-75
2023/06/27 06:10:10;;;;;;;;;3.50;3.17;;;;;;;;1964787;28;2745066;-75
2023/06/27 06:11:23;;;;;;;;;3.00;3.00;;;;;;;;1960692;28;2742010;-75
2023/06/27 06:12:33;;;;;;;;;4.00;3.00;;;;;;;;1927647;28;2745064;-75
2023/06/27 06:13:46;;;;;;;;;3.00;3.00;;;;;;;;1978894;29;2736724;-75
2023/06/27 06:14:59;;;;;;;;;4.33;2.00;;;;;;;;1961703;28;2754421;-76
2023/06/27 06:16:09;;;;;;;;;4.00;2.00;;;;;;;;1928712;28;2738932;-75
2023/06/27 06:17:20;;;;;;;;;3.67;3.00;;;;;;;;1973380;28;2748302;-75
2023/06/27 06:18:31;;;;;;;;;3.00;3.00;;;;;;;;1971134;28;2737777;-76
2023/06/27 06:19:42;;;;;;;;;4.00;4.00;;;;;;;;1980511;28;2744062;-75
2023/06/27 06:20:53;;;;;;;;;3.33;3.00;;;;;;;;1996335;28;2733668;-75
2023/06/27 06:22:03;;;;;;;;;6.00;3.00;;;;;;;;1969796;28;2739881;-75
2023/06/27 06:23:14;;;;;;;;;4.00;3.00;;;;;;;;1982150;28;3445025;-77
2023/06/27 06:24:25;;;;;;;;;2.33;2.33;;;;;;;;1981279;28;2753868;-75
2023/06/27 06:25:36;;;;;;;;;3.00;1.33;;;;;;;;1979738;29;2729429;-75
2023/06/27 06:26:48;;;;;;;;;3.00;3.00;;;;;;;;1983344;28;2737762;-75
2023/06/27 06:28:01;;;;;;;;;4.67;3.17;;;;;;;;1963691;28;2749205;-75
2023/06/27 06:29:14;;;;;;;;;3.00;2.00;;;;;;;;1956100;28;2754460;-75
2023/06/27 06:30:24;;;;;;;;;5.00;3.00;;;;;;;;1936112;28;2739841;-75
2023/06/27 06:31:35;;;;;;;;;3.67;3.00;;;;;;;;1971481;29;2739853;-75
2023/06/27 06:32:45;;;;;;;;;3.67;3.00;;;;;;;;1960930;28;2739834;-75
2023/06/27 06:33:57;;;;;;;;;4.00;4.00;;;;;;;;1974826;28;2746103;-75
2023/06/27 06:35:09;;;;;;;;;2.00;2.00;;;;;;;;1981746;28;2741002;-74
2023/06/27 06:36:26;;;;;;;;;3.50;3.50;;;;;;;;1966455;28;2739857;-75
2023/06/27 06:37:39;;;;;;;;;5.83;3.00;;;;;;;;1965432;28;2735751;-75
2023/06/27 06:38:52;;;;;;;;;6.33;3.00;;;;;;;;1953624;28;2744022;-75
2023/06/27 06:40:05;;;;;;;;;3.17;3.17;;;;;;;;1960614;28;2732610;-75
2023/06/27 06:41:18;;;;;;;;;4.17;3.00;;;;;;;;1966017;28;2737773;-77
2023/06/27 06:42:29;;;;;;;;;2.00;2.00;;;;;;;;1943778;28;2751298;-76
2023/06/27 06:43:40;;;;;;;;;4.00;2.00;;;;;;;;1985372;28;2754802;-76
2023/06/27 06:44:51;;;;;;;;;5.67;1.67;;;;;;;;1979627;29;2739877;-75
2023/06/27 06:46:02;;;;;;;;;4.67;2.33;;;;;;;;1932821;28;2748197;-76
2023/06/27 06:47:13;;;;;;;;;3.67;2.33;;;;;;;;1979728;28;2747143;-76
2023/06/27 06:48:26;;;;;;;;;4.83;3.00;;;;;;;;1972668;29;2750314;-75
2023/06/27 06:49:39;;;;;;;;;3.33;2.33;;;;;;;;1959461;28;2733084;-76
2023/06/27 06:50:52;;;;;;;;;3.17;2.17;;;;;;;;1954075;28;2753395;-76
2023/06/27 06:52:03;;;;;;;;;3.33;2.00;;;;;;;;1934103;28;2752360;-75
2023/06/27 06:53:14;;;;;;;;;3.00;3.00;;;;;;;;1986251;28;2754460;-75
2023/06/27 06:54:26;;;;;;;;;2.40;2.40;;;;;;;;1990689;28;2754463;-75
2023/06/27 06:55:39;;;;;;;;;3.67;3.17;;;;;;;;1980585;28;2735676;-75
2023/06/27 06:56:52;;;;;;;;;3.50;2.00;;;;;;;;1980159;28;2738808;-75
2023/06/27 06:58:05;;;;;;;;;5.17;3.00;;;;;;;;1979372;28;2741992;-75
2023/06/27 06:59:18;;;;;;;;;4.50;3.17;;;;;;;;1972712;28;2746098;-75
2023/06/27 07:00:31;;;;;;;;;3.00;1.50;;;;;;;;1964153;28;2735683;-75
2023/06/27 07:01:41;;;;;;;;;5.00;3.00;;;;;;;;1941185;28;2748258;-75
2023/06/27 07:02:52;;;;;;;;;3.00;2.33;;;;;;;;1993197;28;2754451;-75
2023/06/27 07:04:02;;;;;;;;;3.00;2.67;;;;;;;;1968822;28;3466920;-75